Time;durP1;ratioP1;P1;durP2;ratioP2;P2;SDS_P1;SDS_P2;PMS_P1;PMS_P2;Temp;Humidity;BMP_temperature;BMP_pressure;BME280_temperature;BME280_humidity;BME280_pressure;Samples;Min_cycle;Max_cycle;Signal;HPM_P1;HPM_P2
2022/11/14 00:02:39;;;;;;;0.00;0.00;;;;;;;1.10;70.68;100133.47;6215475;23;20020;-66
2022/11/14 00:05:24;;;;;;;0.10;0.10;;;;;;;1.07;71.41;100145.47;6213323;23;20028;-66
2022/11/14 00:08:14;;;;;;;0.00;0.00;;;;;;;1.05;72.51;100146.69;6209237;23;20357;-66
2022/11/14 00:10:58;;;;;;;0.03;0.03;;;;;;;0.98;73.80;100138.59;6178115;23;20021;-66
2022/11/14 00:13:44;;;;;;;0.10;0.10;;;;;;;0.90;73.75;100134.22;6205655;23;20031;-65
2022/11/14 00:16:28;;;;;;;0.10;0.10;;;;;;;0.91;73.68;100146.66;6217347;23;20059;-66
2022/11/14 00:19:14;;;;;;;0.10;0.10;;;;;;;0.77;73.82;100126.94;6208269;23;20037;-66
2022/11/14 00:21:59;;;;;;;0.10;0.10;;;;;;;0.92;73.88;100134.84;6205008;23;20021;-66
2022/11/14 00:24:43;;;;;;;0.10;0.10;;;;;;;0.95;73.36;100141.69;6214993;23;20028;-66
2022/11/14 00:27:29;;;;;;;0.03;0.03;;;;;;;0.98;72.96;100150.22;6206685;23;20023;-66
2022/11/14 00:30:14;;;;;;;0.10;0.10;;;;;;;0.99;72.55;100149.19;6191716;23;20024;-66
2022/11/14 00:32:58;;;;;;;0.10;0.10;;;;;;;0.96;72.37;100141.50;6203370;23;20108;-66
2022/11/14 00:35:51;;;;;;;0.10;0.10;;;;;;;0.98;71.62;100143.97;6216978;23;20070;-66
2022/11/14 00:38:35;;;;;;;0.10;0.10;;;;;;;0.99;71.09;100149.19;6214833;23;20370;-66
2022/11/14 00:41:19;;;;;;;0.10;0.10;;;;;;;0.88;71.20;100133.59;6206587;23;20024;-66
2022/11/14 00:44:04;;;;;;;0.10;0.10;;;;;;;1.07;70.90;100150.84;6212053;23;20032;-66
2022/11/14 00:46:48;;;;;;;0.10;0.10;;;;;;;1.13;70.66;100157.28;6201651;23;20039;-66
2022/11/14 00:49:33;;;;;;;0.00;0.00;;;;;;;1.18;70.40;100162.06;6214184;23;20028;-66
2022/11/14 00:52:18;;;;;;;0.10;0.10;;;;;;;1.21;70.31;100167.06;6190603;23;20020;-66
2022/11/14 00:55:04;;;;;;;0.10;0.10;;;;;;;1.20;70.74;100171.59;6214481;23;20048;-66
2022/11/14 00:57:49;;;;;;;0.10;0.10;;;;;;;1.17;71.27;100174.69;6202721;23;20017;-65
2022/11/14 01:00:34;;;;;;;0.00;0.00;;;;;;;1.14;71.64;100172.44;6201929;23;20522;-66
2022/11/14 01:03:18;;;;;;;0.10;0.10;;;;;;;1.10;71.91;100187.34;6212058;23;20024;-66
2022/11/14 01:06:05;;;;;;;0.10;0.10;;;;;;;1.11;72.05;100189.81;6193603;23;20048;-68
2022/11/14 01:08:51;;;;;;;0.10;0.10;;;;;;;1.13;72.38;100186.94;6218666;23;20020;-67
2022/11/14 01:11:35;;;;;;;0.10;0.10;;;;;;;1.11;72.52;100189.00;6179905;23;20115;-67
2022/11/14 01:14:20;;;;;;;0.00;0.00;;;;;;;1.02;72.97;100182.13;6217107;23;20078;-67
2022/11/14 01:17:05;;;;;;;0.04;0.04;;;;;;;1.07;73.17;100190.41;6176195;23;1184910;-68
2022/11/14 01:19:49;;;;;;;0.00;0.00;;;;;;;1.06;73.19;100194.13;6182177;23;20107;-67
2022/11/14 01:22:34;;;;;;;0.10;0.10;;;;;;;1.06;73.43;100186.06;6155815;23;20029;-67
2022/11/14 01:25:20;;;;;;;0.10;0.10;;;;;;;1.08;72.59;100175.91;6175496;23;20115;-67
2022/11/14 01:28:06;;;;;;;0.10;0.10;;;;;;;1.08;70.62;100182.13;6215316;23;20051;-66
2022/11/14 01:30:51;;;;;;;0.10;0.10;;;;;;;1.11;70.09;100186.31;6212120;23;20147;-66
2022/11/14 01:33:35;;;;;;;0.10;0.10;;;;;;;1.12;69.60;100196.03;6215892;23;20502;-66
2022/11/14 01:36:20;;;;;;;0.10;0.10;;;;;;;1.17;69.31;100188.16;6191199;23;20024;-66
2022/11/14 01:39:05;;;;;;;0.00;0.00;;;;;;;1.17;69.35;100203.50;6217255;23;20110;-66
2022/11/14 01:41:50;;;;;;;0.10;0.10;;;;;;;1.26;69.57;100204.97;6179979;23;20487;-67
2022/11/14 01:44:43;;;;;;;0.10;0.10;;;;;;;1.23;69.61;100208.91;6216076;23;20028;-66
2022/11/14 01:47:31;;;;;;;0.10;0.10;;;;;;;1.22;69.57;100211.81;6176478;23;20360;-66
2022/11/14 01:50:16;;;;;;;0.10;0.10;;;;;;;1.18;69.41;100207.88;6206793;23;20024;-66
2022/11/14 01:53:01;;;;;;;0.10;0.10;;;;;;;1.04;69.66;100205.13;6209880;23;20091;-65
2022/11/14 01:55:46;;;;;;;0.00;0.00;;;;;;;0.95;70.44;100217.94;6213426;23;20562;-65
2022/11/14 01:58:35;;;;;;;0.10;0.10;;;;;;;0.92;71.50;100223.72;6213079;23;20029;-66
2022/11/14 02:01:20;;;;;;;0.52;0.10;;;;;;;0.84;72.94;100230.09;6207287;23;20025;-66
2022/11/14 02:04:06;;;;;;;0.10;0.10;;;;;;;0.69;73.94;100213.25;6215841;23;20123;-66
2022/11/14 02:06:54;;;;;;;0.10;0.10;;;;;;;0.73;74.46;100227.16;6213528;23;20025;-66
2022/11/14 02:09:42;;;;;;;0.00;0.00;;;;;;;0.75;74.02;100225.94;6206598;23;20118;-66
2022/11/14 02:12:26;;;;;;;0.10;0.10;;;;;;;0.75;73.67;100243.94;6212390;23;20024;-65
2022/11/14 02:15:13;;;;;;;0.10;0.10;;;;;;;0.70;73.54;100237.28;6208293;23;20123;-66
2022/11/14 02:17:59;;;;;;;0.08;0.08;;;;;;;0.66;72.88;100244.09;6182582;23;20399;-66
2022/11/14 02:20:45;;;;;;;0.10;0.10;;;;;;;0.66;72.01;100248.66;6204339;23;20507;-66
2022/11/14 02:23:31;;;;;;;0.10;0.10;;;;;;;0.69;70.92;100251.78;6214734;23;20028;-65
2022/11/14 02:26:17;;;;;;;0.00;0.00;;;;;;;0.75;69.78;100246.63;6203164;23;20459;-65
2022/11/14 02:29:03;;;;;;;0.10;0.10;;;;;;;0.81;68.52;100251.22;6204074;23;20464;-66
2022/11/14 02:31:47;;;;;;;0.10;0.10;;;;;;;0.79;65.19;100253.28;6189866;23;20020;-66
2022/11/14 02:34:32;;;;;;;0.10;0.10;;;;;;;0.76;63.46;100246.44;6204845;23;20016;-65
2022/11/14 02:37:18;;;;;;;0.10;0.10;;;;;;;0.76;62.37;100245.59;6207440;23;20177;-66
2022/11/14 02:40:03;;;;;;;0.10;0.10;;;;;;;0.72;61.09;100242.47;6212948;23;20048;-66
2022/11/14 02:42:47;;;;;;;0.10;0.10;;;;;;;0.69;59.92;100240.16;6204483;23;20048;-66
2022/11/14 02:45:32;;;;;;;0.10;0.10;;;;;;;0.60;59.15;100242.19;6207218;23;20367;-67
2022/11/14 02:48:16;;;;;;;0.10;0.10;;;;;;;0.62;58.93;100237.44;6178710;23;20463;-66
2022/11/14 02:51:01;;;;;;;0.00;0.00;;;;;;;0.57;58.72;100258.75;6206688;23;20024;-66
2022/11/14 02:53:47;;;;;;;0.10;0.10;;;;;;;0.56;59.28;100266.00;6207744;23;20024;-67
2022/11/14 02:56:31;;;;;;;0.10;0.10;;;;;;;0.56;59.04;100267.84;6213389;23;20020;-67
2022/11/14 02:59:15;;;;;;;0.00;0.00;;;;;;;0.58;59.06;100278.41;6206801;23;20028;-67
2022/11/14 03:02:00;;;;;;;0.10;0.10;;;;;;;0.59;58.43;100274.69;6205292;23;20020;-67
2022/11/14 03:04:44;;;;;;;0.10;0.10;;;;;;;0.57;57.92;100261.44;6214957;23;20028;-67
2022/11/14 03:07:31;;;;;;;0.10;0.10;;;;;;;0.54;57.69;100284.19;6204343;23;20021;-67
2022/11/14 03:10:17;;;;;;;0.10;0.10;;;;;;;0.52;57.51;100288.09;6205328;23;20032;-67
2022/11/14 03:13:02;;;;;;;0.10;0.10;;;;;;;0.52;57.15;100262.00;6201764;23;20167;-67
2022/11/14 03:15:46;;;;;;;0.00;0.00;;;;;;;0.50;57.11;100274.03;6184037;23;20094;-66
2022/11/14 03:18:31;;;;;;;0.10;0.10;;;;;;;0.48;56.50;100260.75;6212390;23;20063;-67
2022/11/14 03:21:16;;;;;;;0.10;0.10;;;;;;;0.44;56.80;100281.03;6176124;23;20023;-66
2022/11/14 03:24:00;;;;;;;0.10;0.10;;;;;;;0.46;57.62;100286.19;6216374;23;20337;-67
2022/11/14 03:26:46;;;;;;;0.10;0.10;;;;;;;0.46;57.98;100291.56;6203519;23;20020;-67
2022/11/14 03:29:31;;;;;;;0.10;0.10;;;;;;;0.46;57.45;100278.13;6181561;23;20025;-67
2022/11/14 03:32:15;;;;;;;0.10;0.10;;;;;;;0.45;56.95;100281.84;6205111;23;20027;-66
2022/11/14 03:35:00;;;;;;;0.10;0.10;;;;;;;0.40;57.16;100302.09;6215611;23;20440;-67
2022/11/14 03:37:44;;;;;;;0.10;0.10;;;;;;;0.40;57.11;100285.94;6204823;23;20287;-67
2022/11/14 03:40:29;;;;;;;0.10;0.10;;;;;;;0.40;57.20;100295.91;6215187;23;20070;-67
2022/11/14 03:43:15;;;;;;;0.00;0.00;;;;;;;0.39;56.79;100295.06;6212267;23;20021;-67
2022/11/14 03:46:01;;;;;;;0.10;0.10;;;;;;;0.38;57.13;100289.84;6175300;23;20024;-67
2022/11/14 03:48:46;;;;;;;0.10;0.10;;;;;;;0.38;56.47;100279.94;6210286;23;20031;-67
2022/11/14 03:51:30;;;;;;;0.10;0.10;;;;;;;0.32;56.52;100306.78;6200577;23;20021;-67
2022/11/14 03:54:15;;;;;;;0.10;0.10;;;;;;;0.30;56.48;100306.16;6213750;23;20028;-67
2022/11/14 03:56:59;;;;;;;0.17;0.10;;;;;;;0.31;57.01;100321.28;6217176;23;20031;-67
2022/11/14 03:59:45;;;;;;;0.10;0.10;;;;;;;0.33;57.24;100317.38;6203183;23;20032;-66
2022/11/14 04:02:31;;;;;;;0.10;0.10;;;;;;;0.31;57.00;100308.63;6200954;23;20475;-67
2022/11/14 04:05:15;;;;;;;0.10;0.10;;;;;;;0.31;56.98;100324.78;6203334;23;20021;-67
2022/11/14 04:08:03;;;;;;;0.10;0.10;;;;;;;0.27;56.58;100299.28;6204227;23;20028;-66
2022/11/14 04:10:47;;;;;;;0.10;0.10;;;;;;;0.19;56.47;100312.91;6214929;23;20024;-67
2022/11/14 04:13:32;;;;;;;0.10;0.10;;;;;;;0.14;56.69;100316.97;6214393;23;20464;-66
2022/11/14 04:16:18;;;;;;;0.10;0.10;;;;;;;0.13;56.93;100312.63;6217264;23;20028;-66
2022/11/14 04:19:02;;;;;;;0.10;0.10;;;;;;;0.11;56.90;100324.63;6210498;23;20025;-67
2022/11/14 04:21:47;;;;;;;0.10;0.10;;;;;;;0.11;56.71;100306.63;6205465;23;20098;-65
2022/11/14 04:24:31;;;;;;;0.10;0.10;;;;;;;0.01;56.20;100311.50;6177005;23;20027;-65
2022/11/14 04:27:16;;;;;;;0.10;0.10;;;;;;;-0.13;56.76;100332.03;6206072;23;20515;-65
2022/11/14 04:30:01;;;;;;;0.10;0.10;;;;;;;-0.14;57.05;100314.25;6216647;23;20047;-65
2022/11/14 04:32:48;;;;;;;0.10;0.10;;;;;;;-0.10;57.36;100342.41;6206541;23;20398;-65
2022/11/14 04:35:32;;;;;;;0.10;0.10;;;;;;;-0.25;57.70;100331.72;6203681;23;20021;-65
2022/11/14 04:38:17;;;;;;;0.10;0.10;;;;;;;-0.31;58.33;100329.78;6204232;23;20448;-65
2022/11/14 04:41:02;;;;;;;0.10;0.10;;;;;;;-0.25;58.56;100347.84;6206253;23;20048;-65
2022/11/14 04:43:47;;;;;;;0.10;0.10;;;;;;;-0.31;58.65;100349.44;6208492;23;20020;-65
2022/11/14 04:46:31;;;;;;;0.10;0.10;;;;;;;-0.32;58.57;100363.03;6173770;23;20063;-65
2022/11/14 04:49:17;;;;;;;0.22;0.08;;;;;;;-0.31;58.60;100367.41;6204154;23;20036;-65
2022/11/14 04:52:01;;;;;;;0.10;0.10;;;;;;;-0.37;58.89;100371.69;6203797;23;20020;-66
2022/11/14 04:54:45;;;;;;;0.10;0.10;;;;;;;-0.42;59.08;100368.72;6204815;23;20037;-66
2022/11/14 04:57:30;;;;;;;0.10;0.10;;;;;;;-0.49;59.32;100376.69;6203413;23;20070;-66
2022/11/14 05:00:15;;;;;;;0.10;0.10;;;;;;;-0.54;58.75;100362.19;6152175;23;20027;-65
2022/11/14 05:03:00;;;;;;;0.10;0.10;;;;;;;-0.57;57.01;100360.69;6172876;23;20025;-65
2022/11/14 05:05:46;;;;;;;0.10;0.10;;;;;;;-0.66;57.13;100359.13;6200646;23;20048;-65
2022/11/14 05:08:30;;;;;;;0.10;0.10;;;;;;;-0.74;57.17;100392.28;6210652;23;20025;-65
2022/11/14 05:11:16;;;;;;;0.10;0.10;;;;;;;-0.76;57.58;100386.28;6213470;23;20016;-66
2022/11/14 05:14:01;;;;;;;0.10;0.10;;;;;;;-0.73;58.07;100393.94;6212759;23;20169;-67
2022/11/14 05:16:45;;;;;;;0.15;0.10;;;;;;;-0.73;58.23;100402.84;6215080;23;20632;-67
2022/11/14 05:19:30;;;;;;;0.13;0.13;;;;;;;-0.73;58.13;100404.69;6214022;23;20048;-66
2022/11/14 05:22:16;;;;;;;0.10;0.10;;;;;;;-0.73;57.99;100413.59;6215790;23;20428;-66
2022/11/14 05:25:00;;;;;;;0.00;0.00;;;;;;;-0.73;58.05;100410.06;6206692;23;20024;-66
2022/11/14 05:27:45;;;;;;;0.10;0.10;;;;;;;-0.81;58.03;100412.84;6206315;23;20103;-67
2022/11/14 05:30:30;;;;;;;0.10;0.10;;;;;;;-0.84;58.49;100426.66;6204472;23;20020;-67
2022/11/14 05:33:14;;;;;;;0.10;0.10;;;;;;;-0.84;58.67;100427.47;6178601;23;20064;-66
2022/11/14 05:36:02;;;;;;;0.10;0.10;;;;;;;-0.84;58.95;100429.34;6217242;23;20431;-67
2022/11/14 05:38:48;;;;;;;0.20;0.20;;;;;;;-0.81;59.24;100431.66;6176700;23;20487;-66
2022/11/14 05:41:33;;;;;;;0.43;0.10;;;;;;;-0.75;59.28;100436.28;6158444;23;20020;-66
2022/11/14 05:44:18;;;;;;;0.10;0.10;;;;;;;-0.70;59.20;100433.03;6208890;23;20028;-67
2022/11/14 05:47:02;;;;;;;0.10;0.10;;;;;;;-0.66;59.11;100437.03;6210127;23;20044;-66
2022/11/14 05:49:47;;;;;;;0.10;0.10;;;;;;;-0.56;59.63;100442.97;6210681;23;20078;-66
2022/11/14 05:52:31;;;;;;;0.10;0.10;;;;;;;-0.49;60.41;100435.00;6220818;23;20363;-66
2022/11/14 05:55:17;;;;;;;0.10;0.10;;;;;;;-0.51;60.73;100443.22;6192336;23;20040;-66
2022/11/14 05:58:02;;;;;;;0.10;0.10;;;;;;;-0.50;60.79;100449.44;6205237;23;20017;-66
2022/11/14 06:00:47;;;;;;;0.10;0.10;;;;;;;-0.48;60.68;100450.09;6217708;23;20044;-66
2022/11/14 06:03:33;;;;;;;0.10;0.10;;;;;;;-0.48;60.47;100458.97;6208976;23;20368;-66
2022/11/14 06:06:20;;;;;;;0.25;0.20;;;;;;;-0.55;60.59;100462.59;6177774;23;20070;-66
2022/11/14 06:09:08;;;;;;;0.10;0.10;;;;;;;-0.62;60.58;100454.47;6207324;23;20024;-67
2022/11/14 06:11:54;;;;;;;0.10;0.10;;;;;;;-0.66;60.57;100477.31;6192434;23;20055;-66
2022/11/14 06:14:38;;;;;;;0.17;0.17;;;;;;;-0.68;60.85;100476.66;6206270;23;20021;-66
2022/11/14 06:17:23;;;;;;;0.10;0.10;;;;;;;-0.70;60.78;100481.38;6214288;23;20140;-66
2022/11/14 06:20:08;;;;;;;0.10;0.10;;;;;;;-0.77;60.89;100495.56;6207087;23;20031;-66
2022/11/14 06:22:54;;;;;;;0.10;0.10;;;;;;;-0.79;61.05;100492.19;6214147;23;20025;-65
2022/11/14 06:25:38;;;;;;;0.43;0.20;;;;;;;-0.90;60.82;100474.69;6204454;23;20020;-66
2022/11/14 06:28:24;;;;;;;0.10;0.10;;;;;;;-0.93;60.47;100501.91;6206053;23;20024;-65
2022/11/14 06:31:08;;;;;;;0.20;0.20;;;;;;;-0.97;60.45;100514.03;6217503;23;20035;-66
2022/11/14 06:33:53;;;;;;;0.10;0.10;;;;;;;-0.95;60.71;100516.53;6195150;23;20025;-67
2022/11/14 06:36:38;;;;;;;0.10;0.10;;;;;;;-1.02;60.45;100509.19;6179911;23;20017;-66
2022/11/14 06:39:22;;;;;;;0.73;0.20;;;;;;;-1.07;60.47;100529.53;6206592;23;20095;-67
2022/11/14 06:42:07;;;;;;;0.15;0.15;;;;;;;-1.07;60.19;100516.97;6208828;23;20362;-65
2022/11/14 06:44:52;;;;;;;0.13;0.13;;;;;;;-1.05;59.76;100531.03;6218712;23;20111;-66
2022/11/14 06:47:37;;;;;;;0.10;0.10;;;;;;;-1.09;59.57;100527.06;6209716;23;20115;-66
2022/11/14 06:50:21;;;;;;;0.10;0.10;;;;;;;-1.06;59.65;100534.75;6208545;23;20274;-66
2022/11/14 06:53:05;;;;;;;0.10;0.10;;;;;;;-1.03;59.48;100537.06;6209331;23;20020;-66
2022/11/14 06:55:54;;;;;;;0.15;0.15;;;;;;;-1.03;59.13;100537.06;6218443;23;20024;-65
2022/11/14 06:58:41;;;;;;;0.10;0.10;;;;;;;-1.04;58.84;100532.72;6215968;23;20026;-66
2022/11/14 07:01:27;;;;;;;0.10;0.10;;;;;;;-1.09;58.55;100528.91;6179985;23;20028;-66
2022/11/14 07:04:12;;;;;;;0.10;0.10;;;;;;;-1.08;58.51;100555.56;6211690;23;20415;-66
2022/11/14 07:06:56;;;;;;;0.10;0.10;;;;;;;-1.06;58.35;100532.06;6217491;23;20349;-66
2022/11/14 07:09:41;;;;;;;0.10;0.10;;;;;;;-1.06;58.07;100558.91;6206712;23;20424;-66
2022/11/14 07:12:27;;;;;;;0.10;0.10;;;;;;;-1.08;58.10;100528.72;6214725;23;20044;-65
2022/11/14 07:15:13;;;;;;;0.20;0.20;;;;;;;-1.04;57.85;100548.81;6205714;23;20116;-66
2022/11/14 07:17:58;;;;;;;0.10;0.10;;;;;;;-1.05;57.32;100541.78;6217913;23;20032;-66
2022/11/14 07:20:43;;;;;;;0.10;0.10;;;;;;;-1.04;57.57;100556.03;6207059;23;20127;-66
2022/11/14 07:23:29;;;;;;;0.10;0.10;;;;;;;-1.03;57.86;100566.59;6206852;23;20025;-66
2022/11/14 07:26:13;;;;;;;0.32;0.20;;;;;;;-0.97;57.72;100558.84;6215188;23;20027;-65
2022/11/14 07:28:58;;;;;;;0.10;0.10;;;;;;;-0.92;57.45;100568.03;6215893;23;20247;-66
2022/11/14 07:31:43;;;;;;;0.10;0.10;;;;;;;-0.93;57.26;100560.16;6206106;23;20047;-66
2022/11/14 07:34:29;;;;;;;0.10;0.10;;;;;;;-0.87;57.38;100576.34;6204172;23;20048;-66
2022/11/14 07:37:13;;;;;;;0.13;0.13;;;;;;;-0.84;57.56;100588.59;6215347;23;20021;-65
2022/11/14 07:39:58;;;;;;;0.20;0.20;;;;;;;-0.81;57.32;100585.56;6217571;23;20491;-66
2022/11/14 07:42:43;;;;;;;0.20;0.20;;;;;;;-0.77;56.97;100592.25;6208587;23;20021;-65
2022/11/14 07:45:28;;;;;;;0.20;0.20;;;;;;;-0.74;56.58;100586.50;6220456;23;20024;-66
2022/11/14 07:48:12;;;;;;;0.15;0.15;;;;;;;-0.74;56.54;100586.50;6210598;23;20043;-66
2022/11/14 07:51:02;;;;;;;0.15;0.15;;;;;;;-0.73;56.06;100593.56;6207299;23;20020;-65
2022/11/14 07:53:47;;;;;;;0.10;0.10;;;;;;;-0.70;56.42;100603.13;6218859;23;20024;-66
2022/11/14 07:56:31;;;;;;;0.10;0.10;;;;;;;-0.69;56.43;100606.63;6214395;23;20028;-66
2022/11/14 07:59:16;;;;;;;0.10;0.10;;;;;;;-0.67;56.39;100589.31;6207072;23;20020;-66
2022/11/14 08:02:03;;;;;;;0.10;0.10;;;;;;;-0.60;56.10;100605.53;6219083;23;20482;-66
2022/11/14 08:04:47;;;;;;;0.10;0.10;;;;;;;-0.54;55.30;100604.00;6206503;23;20464;-66
2022/11/14 08:07:33;;;;;;;0.17;0.17;;;;;;;-0.47;55.20;100605.75;6208658;23;20025;-66
2022/11/14 08:10:18;;;;;;;0.20;0.20;;;;;;;0.46;54.15;100612.63;6217704;23;20031;-67
2022/11/14 08:13:04;;;;;;;0.20;0.20;;;;;;;1.95;50.08;100590.56;6207942;23;20031;-66
2022/11/14 08:15:49;;;;;;;0.20;0.20;;;;;;;2.84;46.79;100615.06;6218615;23;20020;-66
2022/11/14 08:18:34;;;;;;;0.40;0.20;;;;;;;3.46;45.28;100604.13;6219077;23;20093;-67
2022/11/14 08:21:18;;;;;;;0.20;0.20;;;;;;;3.91;43.77;100608.88;6219076;23;20043;-67
2022/11/14 08:24:05;;;;;;;0.20;0.20;;;;;;;4.25;42.99;100593.38;6208333;23;20032;-67
2022/11/14 08:26:50;;;;;;;1.17;0.30;;;;;;;4.52;42.61;100600.56;6206882;23;20020;-67
2022/11/14 08:29:34;;;;;;;0.30;0.30;;;;;;;4.83;41.88;100597.09;6216251;23;20025;-67
2022/11/14 08:32:20;;;;;;;0.30;0.30;;;;;;;5.06;40.57;100600.31;6206828;23;20020;-67
2022/11/14 08:35:05;;;;;;;0.30;0.30;;;;;;;5.21;39.93;100599.97;6179442;23;20029;-67
2022/11/14 08:37:49;;;;;;;0.20;0.20;;;;;;;5.18;39.52;100598.56;6219297;23;20024;-67
2022/11/14 08:40:35;;;;;;;0.20;0.20;;;;;;;5.33;39.29;100600.13;6218126;23;20028;-67
2022/11/14 08:43:19;;;;;;;0.30;0.30;;;;;;;5.50;39.22;100605.81;6208148;23;20124;-67
2022/11/14 08:46:04;;;;;;;0.30;0.30;;;;;;;5.74;38.71;100604.13;6217939;23;20025;-67
2022/11/14 08:48:49;;;;;;;0.30;0.30;;;;;;;6.01;38.63;100609.34;6180170;23;20444;-67
2022/11/14 08:51:34;;;;;;;0.30;0.30;;;;;;;6.24;37.79;100592.41;6206497;23;20024;-67
2022/11/14 08:54:19;;;;;;;0.30;0.30;;;;;;;6.40;37.43;100611.84;6216871;23;20016;-67
2022/11/14 08:57:05;;;;;;;0.30;0.30;;;;;;;6.62;37.08;100603.22;6208648;23;20024;-67
2022/11/14 08:59:50;;;;;;;0.30;0.30;;;;;;;6.76;36.64;100607.44;6219022;23;20127;-67
2022/11/14 09:02:34;;;;;;;0.40;0.40;;;;;;;6.95;36.22;100593.81;6219895;23;20029;-67
2022/11/14 09:05:20;;;;;;;0.40;0.40;;;;;;;7.17;36.09;100607.69;6219085;23;20115;-67
2022/11/14 09:08:06;;;;;;;0.50;0.50;;;;;;;7.11;35.70;100600.47;6207524;23;20039;-67
2022/11/14 09:10:51;;;;;;;0.30;0.30;;;;;;;7.10;36.28;100615.13;6215735;23;20099;-66
2022/11/14 09:13:37;;;;;;;0.40;0.40;;;;;;;7.37;35.74;100612.81;6207114;23;20379;-67
2022/11/14 09:16:21;;;;;;;0.50;0.50;;;;;;;7.62;35.08;100609.09;6185611;23;20017;-66
2022/11/14 09:19:06;;;;;;;0.50;0.50;;;;;;;7.78;34.40;100618.44;6207195;23;20166;-67
2022/11/14 09:21:51;;;;;;;0.40;0.40;;;;;;;7.94;34.52;100606.00;6181254;23;20024;-67
2022/11/14 09:24:35;;;;;;;0.50;0.50;;;;;;;7.93;34.66;100609.81;6209264;23;20116;-67
2022/11/14 09:27:19;;;;;;;0.50;0.50;;;;;;;7.83;34.44;100604.13;6207791;23;20046;-67
2022/11/14 09:30:07;;;;;;;0.50;0.50;;;;;;;7.97;34.72;100614.78;6218399;23;20031;-66
2022/11/14 09:32:52;;;;;;;0.50;0.50;;;;;;;8.32;34.11;100612.00;6207485;23;20017;-66
2022/11/14 09:35:36;;;;;;;0.50;0.50;;;;;;;8.33;34.33;100612.81;6204543;23;20377;-67
2022/11/14 09:38:21;;;;;;;0.50;0.50;;;;;;;8.78;33.58;100595.78;6180043;23;20017;-66
2022/11/14 09:41:22;;;;;;;0.50;0.50;;;;;;;8.75;33.44;100606.38;6217201;23;20472;-67
2022/11/14 09:44:31;;;;;;;0.60;0.60;;;;;;;8.94;33.34;100599.63;6205468;23;20107;-67
2022/11/14 09:47:22;;;;;;;0.60;0.60;;;;;;;8.78;33.19;100598.50;6182269;23;20020;-67
2022/11/14 09:50:12;;;;;;;0.60;0.60;;;;;;;8.70;33.29;100608.97;6194441;23;20017;-68
2022/11/14 09:53:00;;;;;;;0.70;0.70;;;;;;;8.90;32.96;100614.00;6207584;23;20035;-68
2022/11/14 09:55:44;;;;;;;0.60;0.60;;;;;;;9.15;32.84;100616.38;6207147;23;20031;-68
2022/11/14 09:58:29;;;;;;;0.70;0.70;;;;;;;9.54;32.48;100614.84;6207936;23;20021;-68
2022/11/14 10:01:29;;;;;;;0.70;0.70;;;;;;;9.90;32.03;100609.94;6206677;23;20045;-68
2022/11/14 10:04:23;;;;;;;0.70;0.70;;;;;;;10.25;31.75;100608.78;6216131;23;20031;-68
2022/11/14 10:07:19;;;;;;;0.70;0.70;;;;;;;10.52;30.85;100608.06;6215519;23;20016;-69
2022/11/14 10:10:12;;;;;;;0.70;0.70;;;;;;;10.75;30.58;100609.72;6216717;23;20490;-68
2022/11/14 10:13:10;;;;;;;0.63;0.63;;;;;;;10.87;30.23;100612.28;6215464;23;20016;-67
2022/11/14 10:16:03;;;;;;;0.80;0.80;;;;;;;10.84;30.11;100593.66;6159668;23;20036;-67
2022/11/14 10:19:08;;;;;;;0.70;0.70;;;;;;;10.55;30.21;100590.34;6194785;23;20023;-67
2022/11/14 10:22:10;;;;;;;0.75;0.75;;;;;;;10.42;30.13;100599.72;6218984;23;20035;-66
2022/11/14 10:25:14;;;;;;;0.70;0.70;;;;;;;10.16;30.27;100602.13;6206646;23;20024;-66
2022/11/14 10:28:18;;;;;;;0.70;0.70;;;;;;;10.36;30.07;100599.66;6205495;23;20032;-66
2022/11/14 10:31:13;;;;;;;0.80;0.80;;;;;;;10.52;30.48;100597.13;6205536;23;20062;-67
2022/11/14 10:34:05;;;;;;;0.73;0.73;;;;;;;11.12;29.45;100594.50;6208056;23;20345;-66
2022/11/14 10:37:02;;;;;;;0.82;0.82;;;;;;;11.71;28.71;100591.97;6208131;23;20025;-67
2022/11/14 10:39:50;;;;;;;0.85;0.85;;;;;;;12.10;28.13;100591.72;6193312;23;20753;-68
2022/11/14 10:42:38;;;;;;;0.90;0.90;;;;;;;12.11;28.10;100596.09;6203381;23;20021;-67
2022/11/14 10:45:27;;;;;;;0.88;0.88;;;;;;;12.16;27.66;100589.78;6206213;23;20120;-67
2022/11/14 10:48:15;;;;;;;0.90;0.90;;;;;;;12.10;27.35;100590.88;6206060;23;20116;-68
2022/11/14 10:51:03;;;;;;;0.90;0.90;;;;;;;11.85;27.77;100582.19;6193698;23;20040;-67
2022/11/14 10:53:57;;;;;;;0.90;0.90;;;;;;;11.81;28.15;100589.31;6217377;23;20021;-67
2022/11/14 10:56:49;;;;;;;0.90;0.90;;;;;;;11.39;28.43;100582.66;6216875;23;20020;-67
2022/11/14 10:59:33;;;;;;;1.40;1.00;;;;;;;11.29;28.55;100591.63;6216507;23;20493;-68
2022/11/14 11:02:18;;;;;;;0.80;0.80;;;;;;;10.91;28.64;100583.31;6217444;23;20016;-67
2022/11/14 11:05:13;;;;;;;0.80;0.80;;;;;;;10.91;29.11;100586.06;6218458;23;20028;-67
2022/11/14 11:14:16;;;;;;;0.80;0.80;;;;;;;10.93;29.42;100577.59;6208867;23;20047;-68
2022/11/14 11:17:15;;;;;;;0.80;0.80;;;;;;;11.49;28.77;100580.03;6181884;23;20008;-67
2022/11/14 11:20:23;;;;;;;0.90;0.90;;;;;;;11.62;28.39;100586.16;6207104;23;20599;-67
2022/11/14 11:23:17;;;;;;;0.90;0.90;;;;;;;11.46;28.66;100585.19;6208846;23;20381;-67
2022/11/14 11:26:07;;;;;;;1.00;1.00;;;;;;;11.32;28.74;100571.13;6219919;23;20020;-68
2022/11/14 11:29:14;;;;;;;0.70;0.70;;;;;;;10.75;29.19;100587.00;6207458;23;20016;-68
2022/11/14 11:31:59;;;;;;;0.90;0.90;;;;;;;10.74;29.69;100582.59;6194429;23;20024;-67
2022/11/14 11:34:44;;;;;;;0.90;0.90;;;;;;;11.03;29.40;100593.31;6209908;23;20016;-67
2022/11/14 11:37:37;;;;;;;0.90;0.90;;;;;;;10.69;29.86;100586.09;6209325;23;20021;-68
2022/11/14 11:40:24;;;;;;;0.80;0.80;;;;;;;10.83;29.79;100596.66;6207571;23;20020;-68
2022/11/14 11:43:15;;;;;;;0.90;0.90;;;;;;;10.86;29.44;100582.47;6161355;23;20120;-68
2022/11/14 11:46:05;;;;;;;0.90;0.90;;;;;;;10.73;29.62;100592.72;6209648;23;20028;-68
2022/11/14 11:49:01;;;;;;;0.80;0.80;;;;;;;10.73;29.66;100587.25;6219283;23;20454;-68
2022/11/14 11:51:51;;;;;;;0.65;0.65;;;;;;;10.29;30.12;100587.25;6218283;23;20021;-68
2022/11/14 11:54:49;;;;;;;0.73;0.73;;;;;;;9.53;31.17;100583.16;6209611;23;20028;-68
2022/11/14 11:57:40;;;;;;;0.30;0.30;;;;;;;8.01;33.06;100584.09;6207471;23;20291;-68
2022/11/14 12:00:26;;;;;;;0.80;0.80;;;;;;;7.85;34.24;100591.09;6194178;23;20107;-69
2022/11/14 12:03:12;;;;;;;0.70;0.70;;;;;;;8.75;33.23;100593.53;6207053;23;20419;-68
2022/11/14 12:06:07;;;;;;;0.60;0.60;;;;;;;9.27;32.29;100580.00;6217009;23;20487;-67
2022/11/14 12:09:09;;;;;;;0.90;0.80;;;;;;;9.46;31.63;100588.78;6220012;23;20021;-67
2022/11/14 12:11:57;;;;;;;0.80;0.80;;;;;;;9.78;31.43;100593.66;6209398;23;20119;-68
2022/11/14 12:15:03;;;;;;;0.77;0.77;;;;;;;9.97;31.07;100596.91;6218154;23;20025;-68
2022/11/14 12:18:16;;;;;;;0.82;0.82;;;;;;;9.97;30.92;100596.09;6217837;23;20056;-68
2022/11/14 12:21:26;;;;;;;0.32;0.32;;;;;;;9.32;31.08;100586.38;6207488;23;20020;-68
2022/11/14 12:24:45;;;;;;;0.70;0.70;;;;;;;8.58;31.99;100592.66;6217813;23;20025;-68
2022/11/14 12:28:01;;;;;;;0.60;0.60;;;;;;;8.30;32.38;100599.69;6181592;23;20020;-67
2022/11/14 12:30:49;;;;;;;0.50;0.50;;;;;;;8.36;32.58;100602.28;6160358;23;20028;-68
2022/11/14 12:33:42;;;;;;;0.60;0.60;;;;;;;8.40;32.69;100594.47;6194531;23;20016;-68
2022/11/14 12:36:29;;;;;;;0.50;0.50;;;;;;;8.45;32.63;100597.28;6219222;23;20024;-67
2022/11/14 12:39:21;;;;;;;;;;;;;;;7.12;34.39;100596.69;6208460;23;20025;-67
2022/11/14 12:42:09;;;;;;;0.40;0.30;;;;;;;5.48;37.20;100587.06;6226165;23;20382;-68
2022/11/14 12:44:54;;;;;;;0.35;0.20;;;;;;;4.46;39.47;100602.28;6179855;23;20029;-67
2022/11/14 12:48:19;;;;;;;0.20;0.20;;;;;;;3.73;41.29;100608.69;6219752;23;20024;-67
2022/11/14 12:51:43;;;;;;;0.30;0.20;;;;;;;3.22;42.67;100605.56;6194885;23;20484;-68
2022/11/14 12:54:45;;;;;;;0.15;0.15;;;;;;;2.87;43.56;100600.28;6208913;23;20107;-67
2022/11/14 12:57:48;;;;;;;0.95;0.28;;;;;;;2.62;44.03;100601.69;6208890;23;20035;-66
2022/11/14 13:00:34;;;;;;;0.20;0.20;;;;;;;2.43;44.71;100602.44;6178068;23;20025;-67
2022/11/14 13:03:32;;;;;;;0.20;0.20;;;;;;;2.15;44.90;100595.25;6216111;23;20026;-67
2022/11/14 13:06:22;;;;;;;0.60;0.20;;;;;;;1.92;45.80;100607.97;6209540;23;20482;-67
2022/11/14 13:09:25;;;;;;;0.52;0.20;;;;;;;1.78;46.27;100600.81;6186063;23;20087;-67
2022/11/14 13:22:31;;;;;;;0.20;0.20;;;;;;;1.37;48.30;100594.31;6217354;23;20024;-66